Time;durP1;ratioP1;P1;durP2;ratioP2;P2;SDS_P1;SDS_P2;PMS_P1;PMS_P2;Temp;Humidity;BMP_temperature;BMP_pressure;BME280_temperature;BME280_humidity;BME280_pressure;Samples;Min_cycle;Max_cycle;Signal;HPM_P1;HPM_P2
2023/12/17 00:01:38;;;;;;;;;77.00;57.00;;;;;4.94;75.08;103655.56;5055764;28;45512;-74
2023/12/17 00:04:04;;;;;;;;;74.33;56.33;;;;;4.89;74.89;103653.53;5055249;28;47472;-75
2023/12/17 00:06:30;;;;;;;;;69.33;55.00;;;;;4.74;75.66;103629.03;5056723;28;45833;-76
2023/12/17 00:09:02;;;;;;;;;67.33;51.67;;;;;4.36;74.88;103561.38;5055076;28;45862;-74
2023/12/17 00:11:27;;;;;;;;;70.33;55.67;;;;;4.81;74.81;103638.19;5056051;28;46150;-75
2023/12/17 00:13:55;;;;;;;;;62.67;49.33;;;;;4.84;74.37;103630.59;5054561;28;46768;-74
2023/12/17 00:16:21;;;;;;;;;68.67;52.67;;;;;5.02;74.65;103657.00;5055134;28;46039;-73
2023/12/17 00:18:47;;;;;;;;;77.00;55.67;;;;;5.01;74.87;103655.22;5055622;28;45286;-73
2023/12/17 00:21:13;;;;;;;;;72.00;57.00;;;;;4.75;74.97;103610.09;5056669;28;45565;-73
2023/12/17 00:23:39;;;;;;;;;65.67;50.00;;;;;4.47;74.59;103573.44;5055857;28;46158;-71
2023/12/17 00:26:04;;;;;;;;;71.33;56.33;;;;;4.98;74.56;103661.06;5055338;28;45480;-73
2023/12/17 00:28:30;;;;;;;;;71.67;55.33;;;;;4.97;74.61;103669.66;5056600;28;45453;-73
2023/12/17 00:30:55;;;;;;;;;64.33;51.00;;;;;4.99;74.43;103675.88;5056799;28;45385;-71
2023/12/17 00:33:21;;;;;;;;;63.00;51.33;;;;;4.91;74.76;103657.91;5056941;28;45900;-74
2023/12/17 00:35:46;;;;;;;;;70.00;54.67;;;;;4.83;74.87;103637.50;5056194;28;45393;-70
2023/12/17 00:38:12;;;;;;;;;66.00;49.33;;;;;4.86;74.92;103649.78;5056261;28;45444;-72
2023/12/17 00:40:38;;;;;;;;;69.00;53.33;;;;;4.83;74.76;103652.19;5056135;28;45558;-72
2023/12/17 00:43:03;;;;;;;;;59.67;45.33;;;;;4.83;74.57;103641.78;5055990;28;46455;-74
2023/12/17 00:45:29;;;;;;;;;61.33;46.67;;;;;5.01;74.11;103669.09;5057384;28;45652;-74
2023/12/17 00:47:54;;;;;;;;;62.33;48.33;;;;;5.01;74.58;103669.09;5059056;28;46649;-72
2023/12/17 00:50:20;;;;;;;;;63.00;47.33;;;;;4.86;74.20;103655.91;5069076;28;45316;-69
2023/12/17 00:52:47;;;;;;;;;60.00;47.00;;;;;4.91;74.79;103663.13;5068165;28;46288;-76
2023/12/17 00:55:13;;;;;;;;;69.33;52.00;;;;;4.75;74.75;103627.38;5063116;28;46437;-79
2023/12/17 00:57:40;;;;;;;;;58.00;47.33;;;;;4.88;74.65;103664.69;5062136;28;45414;-70
2023/12/17 01:00:06;;;;;;;;;55.00;44.00;;;;;4.86;74.45;103680.97;5058267;28;45213;-79
2023/12/17 01:02:32;;;;;;;;;56.67;45.00;;;;;4.78;74.27;103666.53;5055628;28;46270;-74
2023/12/17 01:04:57;;;;;;;;;59.33;46.33;;;;;4.70;74.58;103652.06;5056484;28;45546;-80
2023/12/17 01:07:23;;;;;;;;;59.00;47.33;;;;;4.79;74.75;103684.84;5057679;28;45458;-76
2023/12/17 01:09:49;;;;;;;;;59.00;45.00;;;;;4.73;75.20;103678.28;5056017;28;45503;-75
2023/12/17 01:12:14;;;;;;;;;55.33;45.00;;;;;4.74;75.03;103683.56;5057342;28;45401;-74
2023/12/17 01:14:41;;;;;;;;;57.00;46.33;;;;;4.60;74.71;103654.03;5063908;28;45496;-73
2023/12/17 01:17:08;;;;;;;;;57.33;46.00;;;;;4.95;74.16;103710.19;5054643;28;45763;-77
2023/12/17 01:19:38;;;;;;;;;57.00;45.67;;;;;4.89;74.48;103701.97;5057434;28;45380;-72
2023/12/17 01:22:05;;;;;;;;;57.33;46.33;;;;;4.88;74.33;103708.84;5055615;28;45615;-79
2023/12/17 01:24:32;;;;;;;;;60.33;47.33;;;;;4.68;74.63;103671.06;5053521;28;45832;-78
2023/12/17 01:26:58;;;;;;;;;57.67;46.00;;;;;4.90;74.22;103706.38;5053969;28;45670;-76
2023/12/17 01:29:25;;;;;;;;;60.50;48.50;;;;;4.93;74.06;103698.78;5057064;28;45334;-79
2023/12/17 01:31:50;;;;;;;;;37.50;32.25;;;;;4.99;74.45;103704.44;5055276;28;46551;-79
2023/12/17 01:34:16;;;;;;;;;56.00;44.67;;;;;4.95;74.58;103689.41;5050358;28;45502;-80
2023/12/17 01:36:41;;;;;;;;;58.50;46.75;;;;;4.98;74.40;103674.03;5057933;28;45332;-73
2023/12/17 01:39:09;;;;;;;;;55.67;44.67;;;;;5.08;74.35;103697.31;5060941;28;45589;-85
2023/12/17 01:41:35;;;;;;;;;61.33;47.33;;;;;5.06;74.34;103700.59;5064747;28;45793;-81
2023/12/17 01:44:01;;;;;;;;;62.00;47.67;;;;;4.86;74.05;103667.97;5062118;28;45445;-80
2023/12/17 01:46:27;;;;;;;;;69.33;54.00;;;;;5.02;74.22;103694.25;5067178;28;45330;-79
2023/12/17 01:48:53;;;;;;;;;69.67;50.67;;;;;5.06;73.57;103701.50;5061041;28;45434;-77
2023/12/17 01:51:18;;;;;;;;;55.00;43.33;;;;;4.95;73.54;103681.63;5046625;28;45642;-78
2023/12/17 01:53:44;;;;;;;;;61.00;47.33;;;;;4.48;73.86;103616.75;5047960;28;45500;-78
2023/12/17 01:56:12;;;;;;;;;60.00;46.00;;;;;5.02;74.16;103691.66;5061139;28;45361;-80
2023/12/17 01:58:38;;;;;;;;;61.33;45.67;;;;;4.98;73.40;103696.53;5046969;28;45511;-84
2023/12/17 02:01:04;;;;;;;;;49.67;40.00;;;;;4.92;73.42;103686.63;5053751;28;45538;-79
2023/12/17 02:03:29;;;;;;;;;63.67;49.67;;;;;4.65;73.53;103650.06;5056234;28;45456;-81
2023/12/17 02:05:55;;;;;;;;;65.75;48.00;;;;;4.91;73.07;103694.28;5044083;28;45571;-82
2023/12/17 02:08:20;;;;;;;;;54.50;44.50;;;;;4.87;73.64;103699.25;5060776;28;45475;-81
2023/12/17 02:10:46;;;;;;;;;58.00;47.67;;;;;4.83;73.67;103696.34;5058315;28;45761;-78
2023/12/17 02:13:14;;;;;;;;;55.67;44.33;;;;;4.67;73.99;103702.09;5055386;28;45435;-83
2023/12/17 02:15:43;;;;;;;;;54.33;43.67;;;;;4.30;74.04;103631.00;5053928;28;45787;-81
2023/12/17 02:18:09;;;;;;;;;52.50;43.50;;;;;4.32;74.09;103630.34;5054635;28;45402;-79
2023/12/17 02:20:34;;;;;;;;;57.00;44.50;;;;;4.20;73.96;103611.22;5057485;28;46301;-78
2023/12/17 02:23:04;;;;;;;;;61.67;46.00;;;;;4.35;74.31;103643.53;5057423;28;45322;-71
2023/12/17 02:25:31;;;;;;;;;56.33;44.33;;;;;4.59;74.40;103678.16;5063138;28;45262;-80
2023/12/17 02:27:59;;;;;;;;;55.33;44.00;;;;;4.41;74.04;103651.78;5062488;28;45738;-80
2023/12/17 02:30:25;;;;;;;;;52.33;43.00;;;;;4.50;74.51;103664.50;5060000;28;46291;-80
2023/12/17 02:32:51;;;;;;;;;54.25;41.50;;;;;4.54;74.18;103663.06;5064255;28;45340;-84
2023/12/17 02:35:17;;;;;;;;;55.33;41.00;;;;;4.05;74.23;103574.69;5062906;28;45235;-83
2023/12/17 02:37:43;;;;;;;;;51.67;41.33;;;;;4.48;74.56;103658.28;5063893;28;45279;-81
2023/12/17 02:40:09;;;;;;;;;51.50;40.25;;;;;4.19;74.39;103618.13;5064880;28;46101;-79
2023/12/17 02:42:48;;;;;;;;;52.25;42.75;;;;;4.09;74.48;103584.50;5065169;28;45337;-85
2023/12/17 02:45:14;;;;;;;;;53.67;43.67;;;;;4.50;74.41;103658.41;5071966;28;45416;-81
2023/12/17 02:47:43;;;;;;;;;56.67;45.00;;;;;4.40;74.97;103646.47;5065639;28;45462;-82
2023/12/17 02:50:10;;;;;;;;;60.33;45.67;;;;;3.67;74.32;103545.91;5062629;28;46383;-80
2023/12/17 02:52:36;;;;;;;;;57.33;45.00;;;;;4.11;74.89;103627.03;5062319;28;45412;-81
2023/12/17 02:55:02;;;;;;;;;55.00;43.67;;;;;4.23;75.13;103635.72;5062397;28;45467;-81
2023/12/17 02:57:29;;;;;;;;;53.67;43.33;;;;;3.81;74.76;103553.03;5063224;28;45499;-81
2023/12/17 02:59:55;;;;;;;;;53.67;43.33;;;;;4.10;75.34;103607.06;5065042;28;45361;-81
2023/12/17 03:02:21;;;;;;;;;59.33;45.00;;;;;4.04;75.43;103596.25;5067853;28;45511;-83
2023/12/17 03:04:47;;;;;;;;;53.00;43.00;;;;;3.21;74.98;103454.38;5063816;28;45354;-81
2023/12/17 03:07:13;;;;;;;;;56.67;45.33;;;;;4.20;75.61;103613.81;5064059;28;45353;-84
2023/12/17 03:09:39;;;;;;;;;55.67;44.00;;;;;4.13;75.76;103619.34;5062461;28;47912;-77
2023/12/17 03:12:04;;;;;;;;;48.67;40.33;;;;;3.75;75.64;103552.56;5063622;28;45566;-81
2023/12/17 03:14:32;;;;;;;;;54.33;44.00;;;;;3.78;75.28;103564.06;5062618;28;45349;-82
2023/12/17 03:16:58;;;;;;;;;53.33;42.00;;;;;3.97;75.73;103610.44;5063537;28;45369;-84
2023/12/17 03:19:23;;;;;;;;;55.67;42.33;;;;;3.54;75.79;103552.78;5066572;28;45889;-82
2023/12/17 03:21:50;;;;;;;;;53.33;43.33;;;;;3.90;75.97;103604.69;5067135;28;45306;-81
2023/12/17 03:24:16;;;;;;;;;54.00;42.00;;;;;3.75;75.45;103589.78;5065315;28;45385;-82
2023/12/17 03:26:42;;;;;;;;;54.33;42.67;;;;;3.78;76.05;103600.38;5063953;28;45441;-81
2023/12/17 03:29:07;;;;;;;;;54.00;42.50;;;;;3.62;75.66;103579.25;5063215;28;46059;-83
2023/12/17 03:31:33;;;;;;;;;52.75;42.50;;;;;3.61;75.93;103591.31;5062498;28;45253;-82
2023/12/17 03:34:00;;;;;;;;;54.33;43.33;;;;;3.40;76.59;103567.25;5062103;28;45376;-82
2023/12/17 03:36:26;;;;;;;;;50.67;41.67;;;;;3.44;77.06;103598.56;5064469;28;45427;-80
2023/12/17 03:38:52;;;;;;;;;52.25;42.00;;;;;3.36;77.51;103596.31;5066013;28;45463;-82
2023/12/17 03:41:21;;;;;;;;;51.00;41.00;;;;;3.34;77.10;103590.09;5063310;28;45340;-83
2023/12/17 03:43:50;;;;;;;;;49.25;38.50;;;;;3.37;77.79;103587.75;5063076;28;45431;-82
2023/12/17 03:46:15;;;;;;;;;48.75;40.00;;;;;3.28;77.62;103571.50;5059946;28;45377;-83
2023/12/17 03:48:41;;;;;;;;;53.00;40.75;;;;;3.46;77.04;103576.28;5061373;28;46062;-82
2023/12/17 03:51:06;;;;;;;;;53.00;40.50;;;;;3.42;76.39;103572.56;5061210;28;45434;-83
2023/12/17 03:53:32;;;;;;;;;50.00;39.25;;;;;3.52;76.50;103589.72;5061811;28;45360;-81
2023/12/17 03:55:57;;;;;;;;;48.25;38.75;;;;;3.16;76.57;103516.19;5062156;28;45390;-84
2023/12/17 03:58:23;;;;;;;;;43.50;36.00;;;;;3.28;77.10;103553.38;5070886;28;47013;-82
2023/12/17 04:00:49;;;;;;;;;46.00;36.75;;;;;3.41;76.42;103575.94;5075525;28;45674;-82
2023/12/17 04:03:15;;;;;;;;;50.75;39.00;;;;;3.37;75.82;103577.41;5074306;28;45447;-84
2023/12/17 04:05:41;;;;;;;;;46.50;35.00;;;;;3.37;76.36;103563.56;5071891;28;44679;-81
2023/12/17 04:08:07;;;;;;;;;43.50;36.50;;;;;3.32;76.54;103568.38;5072178;28;45498;-84
2023/12/17 04:10:34;;;;;;;;;43.50;36.25;;;;;3.29;77.00;103575.88;5081155;28;45338;-79
2023/12/17 04:13:00;;;;;;;;;39.25;33.50;;;;;3.03;76.69;103519.50;5085900;27;44660;-76
2023/12/17 04:15:29;;;;;;;;;43.25;36.75;;;;;3.16;76.39;103536.91;5080643;27;45189;-84
2023/12/17 04:17:57;;;;;;;;;46.25;37.25;;;;;2.70;76.37;103453.06;5054943;28;46708;-82
2023/12/17 04:20:23;;;;;;;;;43.00;37.00;;;;;2.83;77.09;103493.75;5065917;28;45418;-81
2023/12/17 04:22:48;;;;;;;;;47.25;39.00;;;;;3.20;75.97;103546.69;5064103;28;45399;-83
2023/12/17 04:25:14;;;;;;;;;49.25;36.25;;;;;3.22;76.19;103568.44;5063283;28;45537;-82
2023/12/17 04:27:40;;;;;;;;;39.75;33.25;;;;;2.98;76.65;103519.13;5063398;28;45960;-80
2023/12/17 04:30:06;;;;;;;;;44.25;36.25;;;;;3.16;76.35;103545.56;5062553;28;45467;-81
2023/12/17 04:32:32;;;;;;;;;43.75;36.75;;;;;3.11;76.48;103549.47;5060693;28;45306;-81
2023/12/17 04:34:58;;;;;;;;;47.50;36.50;;;;;3.01;77.88;103556.41;5062130;28;45420;-83
2023/12/17 04:37:23;;;;;;;;;45.00;34.00;;;;;2.91;77.49;103552.19;5061436;28;45472;-83
2023/12/17 04:39:50;;;;;;;;;45.75;37.75;;;;;2.81;78.15;103544.50;5060939;28;45335;-83
2023/12/17 04:42:16;;;;;;;;;41.50;34.75;;;;;2.76;78.18;103542.44;5062140;28;45232;-80
2023/12/17 04:44:42;;;;;;;;;42.50;37.00;;;;;2.49;79.05;103507.53;5063481;28;45259;-84
2023/12/17 04:47:17;;;;;;;;;47.50;36.75;;;;;2.77;78.91;103551.09;5063614;28;45487;-84
2023/12/17 04:49:47;;;;;;;;;42.50;34.25;;;;;2.65;79.02;103532.94;5070575;28;45306;-83
2023/12/17 04:52:14;;;;;;;;;43.75;35.00;;;;;2.72;78.15;103530.03;5069963;28;45176;-80
2023/12/17 04:54:40;;;;;;;;;36.50;32.25;;;;;2.82;78.50;103551.47;5066308;28;45362;-83
2023/12/17 04:57:06;;;;;;;;;41.25;34.00;;;;;2.42;78.45;103473.28;5067784;28;45475;-81
2023/12/17 04:59:32;;;;;;;;;44.75;36.25;;;;;2.90;78.81;103559.06;5077383;28;45479;-82
2023/12/17 05:01:58;;;;;;;;;44.75;36.50;;;;;2.89;78.12;103543.41;5073917;28;45207;-84
2023/12/17 05:04:24;;;;;;;;;47.00;33.75;;;;;2.83;78.55;103542.94;5067379;28;45287;-84
2023/12/17 05:06:50;;;;;;;;;39.75;33.25;;;;;2.65;77.98;103525.16;5063395;28;46051;-82
2023/12/17 05:09:15;;;;;;;;;36.00;31.50;;;;;2.71;78.43;103542.88;5062192;28;45526;-85
2023/12/17 05:11:41;;;;;;;;;35.25;32.00;;;;;2.42;78.66;103505.25;5064288;28;45335;-79
2023/12/17 05:14:08;;;;;;;;;44.75;33.75;;;;;2.49;78.36;103538.59;5068207;28;45456;-83
2023/12/17 05:16:33;;;;;;;;;37.50;30.50;;;;;2.15;78.55;103469.41;5066889;28;47290;-79
2023/12/17 05:18:59;;;;;;;;;37.50;32.00;;;;;2.64;78.25;103545.75;5073901;28;45510;-83
2023/12/17 05:21:31;;;;;;;;;44.50;33.75;;;;;2.56;79.10;103542.53;5065345;28;45470;-83
2023/12/17 05:23:57;;;;;;;;;41.25;35.00;;;;;2.45;78.25;103544.28;5072595;28;45168;-81
2023/12/17 05:26:28;;;;;;;;;39.50;32.75;;;;;2.38;78.53;103541.09;5074177;28;45243;-81
2023/12/17 05:28:59;;;;;;;;;44.25;35.00;;;;;2.20;79.06;103494.84;5075505;28;45459;-82
2023/12/17 05:31:34;;;;;;;;;41.75;32.25;;;;;2.34;78.84;103524.41;5069217;28;45352;-83
2023/12/17 05:34:02;;;;;;;;;44.00;33.50;;;;;2.54;78.73;103551.91;5067003;28;45483;-78
2023/12/17 05:36:28;;;;;;;;;46.75;36.25;;;;;2.30;79.17;103543.03;5064977;28;46161;-79
2023/12/17 05:38:53;;;;;;;;;42.25;36.00;;;;;2.09;79.10;103498.28;5048901;28;45497;-82
2023/12/17 05:41:19;;;;;;;;;43.50;35.50;;;;;2.15;79.13;103522.03;5066611;28;45336;-79
2023/12/17 05:43:45;;;;;;;;;36.75;32.25;;;;;2.45;79.23;103566.69;5069931;28;45533;-77
2023/12/17 05:46:10;;;;;;;;;38.25;31.50;;;;;2.47;78.68;103558.25;5075614;28;44941;-70
2023/12/17 05:48:36;;;;;;;;;41.75;34.00;;;;;2.23;78.75;103513.22;5076103;28;45301;-70
2023/12/17 05:51:02;;;;;;;;;46.25;35.75;;;;;2.51;78.54;103560.28;5077246;28;45353;-77
2023/12/17 05:53:28;;;;;;;;;41.50;34.00;;;;;2.53;78.62;103574.25;5075150;28;45451;-84
2023/12/17 05:55:57;;;;;;;;;35.50;33.75;;;;;2.42;78.75;103567.34;5070245;28;45859;-70
2023/12/17 05:58:22;;;;;;;;;39.25;32.25;;;;;2.46;79.55;103574.53;5071150;27;45351;-73
2023/12/17 06:00:48;;;;;;;;;39.50;34.25;;;;;2.49;79.25;103571.28;5072589;28;45457;-80
2023/12/17 06:03:14;;;;;;;;;42.00;36.67;;;;;2.56;79.34;103560.66;5073866;28;45204;-79
2023/12/17 06:05:39;;;;;;;;;41.25;34.25;;;;;2.62;79.44;103571.50;5071673;28;45938;-81
2023/12/17 06:08:11;;;;;;;;;40.25;32.50;;;;;2.67;79.26;103561.53;5073500;28;45245;-82
2023/12/17 06:10:39;;;;;;;;;44.25;35.00;;;;;2.33;79.10;103512.28;5069842;28;44823;-80
2023/12/17 06:13:10;;;;;;;;;40.00;33.50;;;;;2.59;79.35;103558.34;5069792;28;45259;-84
2023/12/17 06:15:36;;;;;;;;;35.25;31.00;;;;;2.22;78.72;103482.94;5072437;28;47019;-82
2023/12/17 06:18:02;;;;;;;;;35.00;31.25;;;;;2.64;78.71;103546.66;5079560;28;44838;-80
2023/12/17 06:20:30;;;;;;;;;27.75;27.75;;;;;2.80;78.95;103546.19;5068385;28;45440;-82
2023/12/17 06:22:55;;;;;;;;;41.75;33.00;;;;;2.76;78.75;103529.50;5070398;28;45303;-82
2023/12/17 06:25:22;;;;;;;;;48.00;35.25;;;;;2.63;77.74;103495.66;5068476;28;46959;-80
2023/12/17 06:27:53;;;;;;;;;39.75;33.50;;;;;2.90;77.68;103556.47;5060959;28;45261;-81
2023/12/17 06:30:28;;;;;;;;;38.00;33.00;;;;;2.93;78.04;103556.72;5073594;28;45489;-77
2023/12/17 06:33:04;;;;;;;;;36.50;31.50;;;;;2.72;77.95;103523.97;5066758;28;45302;-83
2023/12/17 06:35:30;;;;;;;;;38.75;32.25;;;;;2.70;78.35;103535.88;5064633;28;45313;-82
2023/12/17 06:37:55;;;;;;;;;43.75;33.25;;;;;2.74;77.69;103558.63;5063331;28;45238;-80
2023/12/17 06:40:21;;;;;;;;;35.00;33.25;;;;;2.35;77.91;103502.97;5065820;28;45320;-82
2023/12/17 06:42:47;;;;;;;;;35.25;32.50;;;;;2.52;78.00;103530.16;5064354;28;45578;-82
2023/12/17 06:45:13;;;;;;;;;34.50;30.00;;;;;2.65;78.69;103570.84;5061779;28;45462;-79
2023/12/17 06:47:38;;;;;;;;;32.50;31.00;;;;;2.65;78.74;103560.50;5070244;28;45383;-82
2023/12/17 06:50:04;;;;;;;;;37.50;33.75;;;;;2.59;78.62;103534.13;5078175;28;44805;-79
2023/12/17 06:52:43;;;;;;;;;42.50;30.75;;;;;2.37;78.10;103493.59;5075632;28;45302;-82
2023/12/17 06:55:09;;;;;;;;;34.25;32.00;;;;;2.62;78.08;103537.88;5065588;28;45357;-80
2023/12/17 06:57:36;;;;;;;;;37.75;33.75;;;;;2.71;77.99;103556.72;5061538;28;45736;-83
2023/12/17 07:00:02;;;;;;;;;43.75;31.75;;;;;2.62;79.05;103560.25;5061905;28;45202;-85
2023/12/17 07:02:29;;;;;;;;;44.75;33.00;;;;;2.47;79.25;103534.97;5063547;28;45225;-83
2023/12/17 07:04:59;;;;;;;;;42.00;33.75;;;;;2.55;79.27;103559.75;5067064;28;46618;-79
2023/12/17 07:07:24;;;;;;;;;47.00;37.00;;;;;2.34;79.26;103520.13;5063826;28;45383;-84
2023/12/17 07:09:50;;;;;;;;;37.50;32.50;;;;;2.67;78.94;103571.88;5064035;28;45328;-79
2023/12/17 07:12:16;;;;;;;;;37.50;34.00;;;;;2.59;79.02;103573.84;5066536;28;45369;-83
2023/12/17 07:14:44;;;;;;;;;43.75;34.00;;;;;2.43;80.16;103566.53;5066268;28;45393;-79
2023/12/17 07:17:11;;;;;;;;;37.00;32.25;;;;;2.30;81.13;103564.66;5065411;28;45430;-77
2023/12/17 07:19:36;;;;;;;;;39.75;33.25;;;;;2.42;80.89;103567.34;5063662;28;45232;-75
2023/12/17 07:22:02;;;;;;;;;47.25;33.50;;;;;2.50;80.75;103574.00;5063219;28;45581;-83
2023/12/17 07:24:28;;;;;;;;;46.50;37.25;;;;;2.48;80.42;103567.81;5065938;28;45419;-78
2023/12/17 07:26:55;;;;;;;;;42.75;35.00;;;;;2.07;81.02;103485.22;5067870;28;45210;-82
2023/12/17 07:29:21;;;;;;;;;40.75;33.25;;;;;2.49;81.01;103548.00;5082359;28;45393;-77
2023/12/17 07:31:46;;;;;;;;;31.25;31.00;;;;;2.53;81.00;103550.97;5086839;27;44779;-73
2023/12/17 07:34:14;;;;;;;;;42.75;33.25;;;;;2.67;81.00;103543.41;5085583;27;46151;-77
2023/12/17 07:36:46;;;;;;;;;37.25;33.00;;;;;2.48;80.86;103535.88;5081121;28;45478;-82
2023/12/17 07:39:12;;;;;;;;;46.50;35.25;;;;;2.55;80.73;103554.59;5068139;28;45208;-84
2023/12/17 07:41:39;;;;;;;;;42.75;33.25;;;;;2.54;80.78;103549.31;5064050;28;45340;-83
2023/12/17 07:44:05;;;;;;;;;42.75;33.00;;;;;2.57;80.56;103551.22;5064472;28;46583;-85
2023/12/17 07:46:30;;;;;;;;;42.25;33.75;;;;;2.56;80.75;103537.38;5064379;28;45396;-84
2023/12/17 07:48:56;;;;;;;;;42.25;33.50;;;;;2.71;80.85;103555.81;5064581;28;45329;-79
2023/12/17 07:51:21;;;;;;;;;42.25;34.50;;;;;2.64;80.34;103531.13;5067247;28;45554;-84
2023/12/17 07:53:57;;;;;;;;;39.25;33.00;;;;;2.49;80.50;103502.38;5065271;28;46114;-86
2023/12/17 07:56:26;;;;;;;;;45.00;34.00;;;;;2.53;80.24;103525.09;5059960;28;45346;-85
2023/12/17 07:58:53;;;;;;;;;43.25;35.50;;;;;2.26;81.07;103513.47;5081675;28;45368;-79
2023/12/17 08:01:29;;;;;;;;;47.50;36.75;;;;;2.27;81.74;103484.22;5062845;28;45437;-81
2023/12/17 08:03:57;;;;;;;;;46.75;37.50;;;;;2.60;80.97;103529.06;5061710;28;46763;-76
2023/12/17 08:06:23;;;;;;;;;41.00;33.25;;;;;2.58;80.91;103532.31;5064780;28;45353;-80
2023/12/17 08:08:50;;;;;;;;;42.50;35.75;;;;;2.65;81.65;103545.88;5061948;28;45373;-71
2023/12/17 08:11:16;;;;;;;;;44.50;33.75;;;;;2.71;81.31;103543.78;5068419;28;45444;-79
2023/12/17 08:13:43;;;;;;;;;44.75;34.25;;;;;2.63;81.00;103546.53;5060765;28;45262;-80
2023/12/17 08:16:09;;;;;;;;;40.75;31.75;;;;;2.42;82.06;103528.53;5060590;28;45620;-78
2023/12/17 08:18:35;;;;;;;;;40.25;34.75;;;;;2.49;82.14;103543.75;5063940;28;45418;-80
2023/12/17 08:21:01;;;;;;;;;41.25;33.25;;;;;2.47;82.19;103553.09;5065219;28;45340;-74
2023/12/17 08:23:34;;;;;;;;;41.25;34.25;;;;;2.16;81.42;103495.41;5066055;28;45387;-73
2023/12/17 08:26:01;;;;;;;;;47.00;34.75;;;;;2.14;81.79;103502.13;5061860;28;45425;-80
2023/12/17 08:28:26;;;;;;;;;45.00;33.75;;;;;2.41;81.77;103549.09;5064047;28;45374;-81
2023/12/17 08:30:52;;;;;;;;;38.50;33.75;;;;;2.40;81.65;103544.72;5061177;28;45470;-81
2023/12/17 08:33:18;;;;;;;;;42.50;32.00;;;;;2.44;81.38;103549.31;5059950;28;47673;-83
2023/12/17 08:35:45;;;;;;;;;43.75;33.00;;;;;2.47;81.94;103547.00;5061692;28;45527;-80
2023/12/17 08:38:11;;;;;;;;;47.75;35.50;;;;;2.40;82.20;103524.91;5061143;28;45230;-77
2023/12/17 08:40:41;;;;;;;;;36.00;32.75;;;;;2.57;82.28;103551.22;5061329;28;45304;-79
2023/12/17 08:43:09;;;;;;;;;41.75;35.25;;;;;2.60;81.74;103547.19;5051886;28;45447;-76
2023/12/17 08:45:38;;;;;;;;;45.50;33.25;;;;;2.62;81.00;103537.88;5062470;28;45364;-77
2023/12/17 08:48:05;;;;;;;;;42.50;33.25;;;;;2.47;81.00;103519.44;5062102;28;45499;-71
2023/12/17 08:50:31;;;;;;;;;40.25;34.00;;;;;2.39;81.69;103506.69;5059031;28;45705;-72
2023/12/17 08:52:57;;;;;;;;;40.75;33.00;;;;;2.37;81.08;103522.06;5062404;28;45703;-78
2023/12/17 08:55:23;;;;;;;;;43.75;35.00;;;;;2.31;81.81;103512.13;5064165;28;46262;-83
2023/12/17 08:57:48;;;;;;;;;44.00;34.00;;;;;2.26;81.18;103492.78;5059926;28;45566;-81
2023/12/17 09:00:18;;;;;;;;;34.75;31.75;;;;;2.65;81.31;103548.44;5059436;28;45564;-73
2023/12/17 09:02:43;;;;;;;;;39.00;32.00;;;;;2.62;81.18;103534.38;5057476;28;45590;-71
2023/12/17 09:05:09;;;;;;;;;41.75;33.50;;;;;2.49;81.13;103516.97;5056548;28;45542;-72
2023/12/17 09:07:36;;;;;;;;;43.50;35.25;;;;;2.73;80.67;103539.63;5063929;28;45796;-74
2023/12/17 09:10:02;;;;;;;;;35.50;30.75;;;;;2.72;80.77;103542.97;5058195;28;45922;-75
2023/12/17 09:12:29;;;;;;;;;37.75;31.50;;;;;2.47;80.15;103493.59;5060518;28;45476;-69
2023/12/17 09:14:55;;;;;;;;;43.50;33.75;;;;;2.38;82.23;103476.44;5060621;28;45642;-81
2023/12/17 09:17:21;;;;;;;;;38.25;34.00;;;;;2.76;81.37;103539.84;5059382;28;45380;-82
2023/12/17 09:19:47;;;;;;;;;43.25;34.50;;;;;2.61;80.52;103515.38;5063369;28;45465;-84
2023/12/17 09:22:13;;;;;;;;;44.50;34.25;;;;;2.80;80.60;103535.84;5055820;28;46229;-81
2023/12/17 09:24:42;;;;;;;;;49.75;33.75;;;;;2.72;80.31;103508.44;5060567;27;45708;-78
2023/12/17 09:27:08;;;;;;;;;40.75;34.00;;;;;2.93;79.57;103536.00;5058273;28;45406;-79
2023/12/17 09:29:33;;;;;;;;;42.25;34.00;;;;;2.95;79.53;103525.78;5058775;28;45318;-81
2023/12/17 09:32:00;;;;;;;;;46.50;36.00;;;;;3.13;78.89;103552.16;5057263;28;46473;-77
2023/12/17 09:34:26;;;;;;;;;38.25;33.00;;;;;3.09;79.33;103539.78;5053654;27;45821;-77
2023/12/17 09:36:51;;;;;;;;;37.25;32.50;;;;;3.17;79.11;103555.13;5072510;28;45694;-80
2023/12/17 09:39:17;;;;;;;;;48.00;36.50;;;;;3.08;79.41;103543.16;5077537;28;44800;-81
2023/12/17 09:41:42;;;;;;;;;46.25;35.00;;;;;3.13;78.58;103544.41;5077168;28;45144;-81
2023/12/17 09:44:08;;;;;;;;;42.00;35.00;;;;;3.11;79.09;103535.63;5069422;28;45217;-81
2023/12/17 09:46:37;;;;;;;;;42.00;32.75;;;;;3.18;78.45;103532.75;5063191;28;45511;-75
2023/12/17 09:49:06;;;;;;;;;42.75;33.75;;;;;3.29;78.23;103534.44;5058639;28;45304;-84
2023/12/17 09:51:37;;;;;;;;;44.50;35.75;;;;;3.46;78.18;103540.00;5062790;28;46822;-83
2023/12/17 09:54:05;;;;;;;;;41.25;34.25;;;;;3.38;77.44;103524.78;5060946;28;45342;-83
2023/12/17 09:56:31;;;;;;;;;45.75;36.00;;;;;3.53;77.73;103544.88;5060456;28;44851;-84
2023/12/17 09:58:57;;;;;;;;;47.50;37.75;;;;;3.06;77.61;103491.25;5061141;28;45334;-84
2023/12/17 10:01:23;;;;;;;;;48.25;36.00;;;;;3.29;78.14;103531.84;5059707;28;45374;-80
2023/12/17 10:03:53;;;;;;;;;41.00;35.25;;;;;3.27;78.33;103517.88;5060369;28;45456;-80
2023/12/17 10:06:19;;;;;;;;;36.00;32.50;;;;;3.46;78.07;103545.19;5058948;28;45512;-78
2023/12/17 10:08:44;;;;;;;;;44.25;36.50;;;;;3.45;77.79;103543.41;5059186;28;45416;-78
2023/12/17 10:11:10;;;;;;;;;49.50;36.50;;;;;3.39;78.18;103534.38;5058644;28;46110;-80
2023/12/17 10:13:35;;;;;;;;;42.00;35.50;;;;;3.58;77.22;103543.53;5057839;28;45408;-79
2023/12/17 10:16:01;;;;;;;;;45.25;35.00;;;;;3.87;76.81;103527.56;5059563;28;45318;-80
2023/12/17 10:18:26;;;;;;;;;48.00;36.00;;;;;4.51;75.28;103535.63;5060052;28;45558;-80
2023/12/17 10:20:53;;;;;;;;;43.50;36.00;;;;;5.15;73.33;103519.38;5058810;28;45432;-80
2023/12/17 10:23:18;;;;;;;;;37.00;33.00;;;;;5.99;70.62;103523.25;5059947;28;45188;-77
2023/12/17 10:25:44;;;;;;;;;36.00;33.50;;;;;6.25;68.72;103518.03;5059611;28;45385;-79
2023/12/17 10:28:12;;;;;;;;;44.00;35.25;;;;;6.36;68.03;103514.44;5060279;28;45451;-81
2023/12/17 10:30:39;;;;;;;;;45.50;37.25;;;;;6.26;67.80;103519.81;5058689;28;45457;-80
2023/12/17 10:33:05;;;;;;;;;41.25;34.50;;;;;5.84;68.16;103494.53;5059734;28;45451;-79
2023/12/17 10:35:32;;;;;;;;;51.00;37.75;;;;;5.71;68.48;103495.41;5057778;28;45305;-72
2023/12/17 10:38:06;;;;;;;;;51.00;36.75;;;;;5.60;69.08;103501.56;5059086;28;45284;-80
2023/12/17 10:40:41;;;;;;;;;36.00;30.25;;;;;5.43;69.96;103492.66;5057890;28;46083;-71
2023/12/17 10:43:08;;;;;;;;;43.00;33.75;;;;;5.76;69.82;103499.19;5054956;28;45333;-78
2023/12/17 10:45:35;;;;;;;;;47.00;36.50;;;;;5.87;69.19;103502.53;5059414;28;45360;-80
2023/12/17 10:48:02;;;;;;;;;45.75;35.50;;;;;5.70;68.56;103497.09;5059472;28;45450;-77
2023/12/17 10:50:29;;;;;;;;;49.50;36.25;;;;;5.70;68.89;103470.22;5065570;28;45418;-74
2023/12/17 10:53:01;;;;;;;;;48.50;35.50;;;;;5.77;68.11;103407.38;5066516;28;45397;-76
2023/12/17 10:55:30;;;;;;;;;40.00;34.25;;;;;6.31;68.47;103455.06;5062610;28;44838;-77
2023/12/17 10:58:05;;;;;;;;;48.00;37.50;;;;;7.08;65.87;103373.78;5066727;28;44787;-76
2023/12/17 11:00:33;;;;;;;;;49.50;39.00;;;;;10.16;59.35;103403.00;5061748;28;45330;-78
2023/12/17 11:03:05;;;;;;;;;44.00;36.25;;;;;12.91;53.00;103426.53;5061558;28;45452;-82
2023/12/17 11:05:30;;;;;;;;;38.25;35.50;;;;;14.97;48.67;103425.00;5059568;28;45515;-81
2023/12/17 11:07:56;;;;;;;;;37.50;31.25;;;;;16.51;44.35;103414.59;5060552;28;45306;-73
2023/12/17 11:10:23;;;;;;;;;44.50;34.25;;;;;17.21;41.67;103410.59;5060442;28;46027;-82
2023/12/17 11:13:05;;;;;;;;;35.00;31.75;;;;;17.20;40.49;103398.19;5061070;28;45340;-81
2023/12/17 11:15:31;;;;;;;;;31.75;29.00;;;;;17.29;39.96;103379.81;5061137;28;45492;-75